Time;durP1;ratioP1;P1;durP2;ratioP2;P2;SDS_P1;SDS_P2;PMS_P1;PMS_P2;Temp;Humidity;BMP_temperature;BMP_pressure;BME280_temperature;BME280_humidity;BME280_pressure;Samples;Min_cycle;Max_cycle;Signal;HPM_P1;HPM_P2
2022/12/22 03:26:51;;;;;;;5.22;2.05;;;;;;;8.26;100.00;99139.31;4962264;28;20041;-88
2022/12/22 03:29:18;;;;;;;2.92;1.83;;;;;;;8.29;100.00;99138.22;5000619;28;20100;-88
2022/12/22 03:31:44;;;;;;;4.32;1.90;;;;;;;8.29;100.00;99141.69;5013406;28;20052;-87
2022/12/22 03:34:11;;;;;;;2.00;1.40;;;;;;;8.31;100.00;99138.91;5017842;28;20045;-88
2022/12/22 03:36:38;;;;;;;2.60;1.60;;;;;;;8.31;100.00;99139.75;5000856;28;20049;-88
2022/12/22 03:39:05;;;;;;;4.25;1.63;;;;;;;8.31;100.00;99139.75;4986381;28;20096;-88
2022/12/22 03:47:03;;;;;;;4.47;0.85;;;;;;;8.32;100.00;99114.13;4969130;28;20103;-88
2022/12/22 03:49:30;;;;;;;2.42;1.30;;;;;;;8.33;100.00;99110.53;4997514;28;20061;-88
2022/12/22 03:51:56;;;;;;;0.90;0.90;;;;;;;8.34;100.00;99115.66;5003154;28;20735;-88
2022/12/22 03:54:24;;;;;;;1.33;0.93;;;;;;;8.36;100.00;99105.78;5014613;28;20065;-88
2022/12/22 03:56:52;;;;;;;2.63;1.27;;;;;;;8.37;100.00;99109.25;4984585;28;20068;-88
2022/12/22 03:59:19;;;;;;;3.03;0.95;;;;;;;8.36;100.00;99107.59;4981814;28;20123;-89
2022/12/22 04:01:48;;;;;;;2.40;1.73;;;;;;;8.38;100.00;99108.28;5000113;28;20054;-88
2022/12/22 04:04:17;;;;;;;3.80;1.48;;;;;;;8.36;100.00;99102.31;5011999;28;20056;-88
2022/12/22 04:06:45;;;;;;;7.32;3.53;;;;;;;8.36;100.00;99105.78;5015194;28;20061;-88
2022/12/22 04:09:12;;;;;;;26.30;11.15;;;;;;;8.37;100.00;99096.88;5000078;28;20429;-88
2022/12/22 04:14:24;;;;;;;23.63;11.90;;;;;;;8.39;100.00;99100.22;4961253;28;21008;-88
2022/12/22 04:17:00;;;;;;;23.38;13.02;;;;;;;8.41;100.00;99100.09;4965861;28;20041;-87
2022/12/22 04:19:27;;;;;;;21.42;13.77;;;;;;;8.42;100.00;99110.56;5008938;28;20134;-88
2022/12/22 04:21:53;;;;;;;17.27;11.10;;;;;;;8.43;100.00;99103.44;5002212;28;20184;-89
2022/12/22 04:24:21;;;;;;;9.35;8.27;;;;;;;8.42;100.00;99105.28;4986652;28;20053;-88
2022/12/22 04:26:48;;;;;;;7.40;6.50;;;;;;;8.46;100.00;99111.09;4988971;28;20056;-88
2022/12/22 04:29:15;;;;;;;6.28;3.78;;;;;;;8.43;100.00;99114.88;4981256;28;20045;-88
2022/12/22 04:31:42;;;;;;;8.02;4.18;;;;;;;8.41;100.00;99108.88;5001478;28;20103;-88
2022/12/22 04:34:09;;;;;;;3.13;2.25;;;;;;;8.40;100.00;99101.09;5001421;28;20496;-88
2022/12/22 04:36:35;;;;;;;2.90;2.13;;;;;;;8.38;100.00;99098.53;4986399;28;20152;-88
2022/12/22 04:39:02;;;;;;;6.20;3.13;;;;;;;8.40;100.00;99095.81;4980969;28;20046;-88
2022/12/22 04:41:29;;;;;;;5.55;2.70;;;;;;;8.40;100.00;99090.50;4984678;28;20056;-88
2022/12/22 04:43:56;;;;;;;3.40;2.05;;;;;;;8.39;100.00;99084.34;5013763;28;20516;-88
2022/12/22 04:46:22;;;;;;;3.45;1.95;;;;;;;8.40;100.00;99077.28;4983940;28;20492;-89
2022/12/22 04:48:49;;;;;;;2.00;1.80;;;;;;;8.40;100.00;99080.75;5000077;28;20057;-88
2022/12/22 04:51:25;;;;;;;2.97;1.73;;;;;;;8.39;100.00;99083.50;5002441;28;20041;-88
2022/12/22 04:53:51;;;;;;;2.55;1.70;;;;;;;8.40;100.00;99078.13;4999605;28;20505;-88
2022/12/22 04:56:18;;;;;;;2.22;1.70;;;;;;;8.39;100.00;99081.72;4997891;28;20647;-88
2022/12/22 04:58:45;;;;;;;3.95;2.20;;;;;;;8.42;100.00;99076.16;4983603;28;20069;-90
2022/12/22 05:01:13;;;;;;;5.25;2.10;;;;;;;8.42;100.00;99068.22;4998329;28;20059;-88
2022/12/22 05:03:41;;;;;;;7.15;2.28;;;;;;;8.43;100.00;99075.19;4986174;28;20049;-89
2022/12/22 05:06:08;;;;;;;2.53;1.88;;;;;;;8.43;100.00;99084.94;5002233;28;20415;-89
2022/12/22 05:08:35;;;;;;;3.35;2.03;;;;;;;8.43;100.00;99074.34;4999694;28;20069;-89
2022/12/22 05:11:01;;;;;;;5.43;2.30;;;;;;;8.42;100.00;99060.28;4986797;28;20060;-87
2022/12/22 05:13:29;;;;;;;4.97;2.05;;;;;;;8.43;100.00;99059.31;5001539;28;20038;-88
2022/12/22 05:16:11;;;;;;;3.15;1.90;;;;;;;8.38;100.00;99056.22;4997356;28;20495;-89
2022/12/22 05:18:39;;;;;;;2.85;1.90;;;;;;;8.43;100.00;99043.44;4997882;28;20139;-89
2022/12/22 05:21:11;;;;;;;3.38;2.17;;;;;;;8.44;100.00;99050.38;4985658;28;20037;-88
2022/12/22 05:23:37;;;;;;;5.82;2.60;;;;;;;8.43;100.00;99038.13;5002206;28;20137;-88
2022/12/22 05:26:04;;;;;;;7.35;2.80;;;;;;;8.45;100.00;99040.66;4987423;28;20057;-88
2022/12/22 05:28:31;;;;;;;4.47;2.00;;;;;;;8.45;100.00;99041.47;4983074;28;20079;-89
2022/12/22 05:31:06;;;;;;;4.10;1.63;;;;;;;8.43;100.00;99054.00;4984071;28;20596;-89
2022/12/22 05:33:33;;;;;;;4.15;1.92;;;;;;;8.46;100.00;99040.50;4981270;28;20049;-91
2022/12/22 05:36:00;;;;;;;5.50;1.75;;;;;;;8.48;100.00;99053.59;4968497;28;20049;-90
2022/12/22 05:38:27;;;;;;;2.22;1.50;;;;;;;8.49;100.00;99052.59;4996816;28;20037;-89
2022/12/22 05:40:54;;;;;;;1.55;1.40;;;;;;;8.51;100.00;99057.78;5017869;28;20045;-89
2022/12/22 05:43:29;;;;;;;2.97;1.73;;;;;;;8.50;100.00;99049.00;4994849;28;20450;-89
2022/12/22 05:45:57;;;;;;;5.63;1.60;;;;;;;8.51;100.00;99042.72;5004731;28;20586;-86
2022/12/22 05:48:24;;;;;;;3.22;1.50;;;;;;;8.53;100.00;99039.94;4985777;28;20485;-88
2022/12/22 05:50:59;;;;;;;3.50;1.75;;;;;;;8.54;100.00;99055.66;4990983;28;20053;-88
2022/12/22 05:53:26;;;;;;;3.75;2.17;;;;;;;8.54;100.00;99057.47;4986166;28;20075;-88
2022/12/22 05:55:52;;;;;;;7.03;2.15;;;;;;;8.55;100.00;99049.41;5019366;28;20459;-89
2022/12/22 05:58:19;;;;;;;3.85;2.08;;;;;;;8.57;100.00;99047.44;5002189;28;20045;-87
2022/12/22 06:00:45;;;;;;;3.58;2.15;;;;;;;8.58;100.00;99040.34;5002310;28;20416;-89
2022/12/22 06:03:12;;;;;;;2.67;1.85;;;;;;;8.57;100.00;99041.31;4988428;28;20068;-90
2022/12/22 06:05:40;;;;;;;7.75;2.28;;;;;;;8.57;100.00;99038.66;4990093;28;20052;-89
2022/12/22 06:08:07;;;;;;;4.05;1.90;;;;;;;8.58;100.00;99049.13;4990838;28;21266;-89
2022/12/22 06:10:34;;;;;;;4.38;2.15;;;;;;;8.59;100.00;99044.66;5004848;28;20052;-89
2022/12/22 06:13:00;;;;;;;4.88;1.95;;;;;;;8.57;100.00;99038.66;5001470;28;20120;-89
2022/12/22 06:15:27;;;;;;;5.28;2.15;;;;;;;8.59;100.00;99029.59;4986662;28;20064;-88
2022/12/22 06:17:53;;;;;;;4.43;2.35;;;;;;;8.60;100.00;99033.94;4971104;28;20053;-87
2022/12/22 06:20:20;;;;;;;3.70;2.03;;;;;;;8.60;100.00;99030.44;4989578;28;20053;-88
2022/12/22 06:22:47;;;;;;;3.08;1.80;;;;;;;8.62;100.00;99028.50;5002533;28;20576;-88
2022/12/22 06:25:13;;;;;;;6.65;2.08;;;;;;;8.62;100.00;99020.53;5013529;28;20045;-88
2022/12/22 06:27:45;;;;;;;5.68;2.35;;;;;;;8.63;100.00;99024.88;5020194;28;20085;-87
2022/12/22 06:30:13;;;;;;;5.05;1.80;;;;;;;8.63;100.00;99023.06;4967648;28;20119;-86
2022/12/22 06:32:40;;;;;;;3.03;1.75;;;;;;;8.65;100.00;99025.56;4985816;28;20045;-89
2022/12/22 06:35:08;;;;;;;3.65;1.98;;;;;;;8.64;100.00;99023.88;5001589;28;20037;-88
2022/12/22 06:37:35;;;;;;;7.57;1.98;;;;;;;8.65;100.00;99025.56;5004125;28;20528;-89
2022/12/22 06:40:02;;;;;;;5.32;2.05;;;;;;;8.65;100.00;99023.75;5011765;28;20045;-82
2022/12/22 06:45:14;;;;;;;5.35;2.47;;;;;;;8.68;100.00;99018.19;4993180;28;20393;-83
2022/12/22 06:47:41;;;;;;;8.32;2.30;;;;;;;8.72;100.00;99034.59;5002868;28;20061;-82
2022/12/22 06:50:08;;;;;;;4.05;2.10;;;;;;;8.73;100.00;99032.78;4999513;28;20745;-82
2022/12/22 06:52:34;;;;;;;9.50;1.73;;;;;;;8.76;100.00;99035.97;5000739;28;20107;-83
2022/12/22 06:55:01;;;;;;;6.82;1.88;;;;;;;8.78;100.00;99039.31;5000995;28;20401;-83
2022/12/22 06:57:28;;;;;;;1.73;1.20;;;;;;;8.80;100.00;99041.81;4988161;28;20041;-82
2022/12/22 06:59:55;;;;;;;7.53;1.77;;;;;;;8.82;100.00;99045.97;4984314;28;20397;-82
2022/12/22 07:02:23;;;;;;;6.75;2.17;;;;;;;8.83;100.00;99044.19;4982310;28;20435;-82
2022/12/22 07:04:50;;;;;;;7.70;2.55;;;;;;;8.83;100.00;99042.38;5000836;28;20772;-83
2022/12/22 07:07:17;;;;;;;7.00;1.70;;;;;;;8.86;100.00;99038.59;5015593;28;20077;-82
2022/12/22 07:09:44;;;;;;;6.40;1.70;;;;;;;8.87;100.00;99048.22;4983214;28;20100;-82
2022/12/22 07:12:12;;;;;;;4.50;1.67;;;;;;;8.87;100.00;99049.03;4998765;28;20045;-82
2022/12/22 07:14:39;;;;;;;6.43;1.77;;;;;;;8.89;100.00;99060.31;4998403;28;20050;-82
2022/12/22 07:17:05;;;;;;;3.75;1.50;;;;;;;8.91;100.00;99070.78;5000702;28;20054;-82
2022/12/22 07:19:32;;;;;;;7.40;1.40;;;;;;;8.91;100.00;99061.03;4981728;28;20551;-82
2022/12/22 07:21:59;;;;;;;10.75;1.85;;;;;;;8.93;100.00;99058.25;5000153;28;20088;-83
2022/12/22 07:24:25;;;;;;;11.98;2.50;;;;;;;8.93;100.00;99045.00;4982775;28;20041;-82
2022/12/22 07:26:52;;;;;;;6.90;1.50;;;;;;;8.94;100.00;99061.72;5015735;28;20056;-82
2022/12/22 07:29:19;;;;;;;8.18;1.52;;;;;;;8.95;100.00;99064.19;4969110;28;20132;-83
2022/12/22 07:31:46;;;;;;;11.82;2.22;;;;;;;8.96;100.00;99054.47;5001482;28;20049;-81
2022/12/22 07:34:14;;;;;;;9.82;1.88;;;;;;;8.97;100.00;99058.78;4985611;28;20832;-82
2022/12/22 07:36:40;;;;;;;9.27;1.40;;;;;;;8.97;100.00;99051.66;4987158;28;20080;-82
2022/12/22 07:39:07;;;;;;;9.20;1.63;;;;;;;8.98;100.00;99047.19;4985879;28;20493;-82
2022/12/22 07:44:20;;;;;;;11.23;2.30;;;;;;;8.97;100.00;99053.47;4961788;28;20095;-82
2022/12/22 07:47:05;;;;;;;9.05;1.80;;;;;;;8.97;100.00;99061.41;4983186;28;20048;-82
2022/12/22 07:52:18;;;;;;;9.73;2.30;;;;;;;8.98;100.00;99058.63;4987223;28;20128;-82
2022/12/22 07:54:44;;;;;;;11.43;2.40;;;;;;;8.99;100.00;99060.28;4998582;28;20127;-81
2022/12/22 07:57:11;;;;;;;8.95;1.90;;;;;;;9.03;100.00;99055.53;5000290;28;20100;-81
2022/12/22 07:59:56;;;;;;;12.43;2.53;;;;;;;9.04;100.00;99067.81;4991408;28;20112;-82
2022/12/22 08:02:23;;;;;;;14.93;2.50;;;;;;;9.06;100.00;99066.69;4968647;28;20069;-82
2022/12/22 08:04:50;;;;;;;14.93;2.88;;;;;;;9.06;100.00;99063.22;4986274;28;20107;-81
2022/12/22 08:07:17;;;;;;;13.70;2.47;;;;;;;9.08;100.00;99056.78;5000154;28;20400;-81
2022/12/22 08:09:43;;;;;;;17.48;2.97;;;;;;;9.09;100.00;99065.56;4997452;28;20041;-82
2022/12/22 08:12:10;;;;;;;13.40;2.90;;;;;;;9.09;100.00;99057.63;4983819;28;20456;-81
2022/12/22 08:14:37;;;;;;;9.73;2.38;;;;;;;9.07;100.00;99046.31;4980173;28;20042;-81
2022/12/22 08:17:03;;;;;;;14.75;2.33;;;;;;;9.11;100.00;99039.78;5000899;28;20041;-83
2022/12/22 08:19:48;;;;;;;7.68;2.25;;;;;;;9.10;100.00;99046.03;4972205;28;20056;-83
2022/12/22 08:22:16;;;;;;;22.52;2.85;;;;;;;9.09;100.00;99039.06;4988290;28;20049;-83
2022/12/22 08:24:43;;;;;;;15.82;4.80;;;;;;;9.14;100.00;99050.06;4983876;28;20072;-82
2022/12/22 08:27:13;;;;;;;23.35;3.13;;;;;;;9.15;100.00;99045.59;4984038;28;20069;-84
2022/12/22 08:29:49;;;;;;;17.23;2.77;;;;;;;9.12;100.00;99047.56;4969200;28;20068;-84
2022/12/22 08:32:35;;;;;;;10.88;2.20;;;;;;;9.17;100.00;99047.13;4963944;28;20542;-83
2022/12/22 08:35:20;;;;;;;12.82;2.40;;;;;;;9.18;100.00;99053.25;4979676;28;20048;-83
2022/12/22 08:37:47;;;;;;;9.50;1.90;;;;;;;9.21;100.00;99052.94;4994706;28;20053;-83
2022/12/22 08:40:18;;;;;;;10.80;1.80;;;;;;;9.20;100.00;99052.13;5012012;28;20132;-83
2022/12/22 08:42:46;;;;;;;16.52;3.65;;;;;;;9.20;100.00;99048.66;5006784;28;20041;-82
2022/12/22 08:45:12;;;;;;;10.68;2.33;;;;;;;9.22;100.00;99052.00;4998952;28;20046;-83
2022/12/22 08:47:39;;;;;;;16.83;2.85;;;;;;;9.21;100.00;99045.88;4983461;28;22566;-83
2022/12/22 08:50:07;;;;;;;24.13;4.50;;;;;;;9.20;100.00;99044.19;5008690;28;20049;-83
2022/12/22 08:52:33;;;;;;;16.27;3.65;;;;;;;9.22;100.00;99038.75;4999476;28;20045;-83
2022/12/22 08:55:00;;;;;;;18.58;3.63;;;;;;;9.22;100.00;99046.69;4998540;28;20722;-84
2022/12/22 08:57:27;;;;;;;9.30;2.90;;;;;;;9.24;100.00;99042.09;5000374;28;20467;-83
2022/12/22 08:59:54;;;;;;;13.05;2.50;;;;;;;9.24;100.00;99042.09;4966300;28;20124;-83
2022/12/22 09:02:21;;;;;;;27.70;4.32;;;;;;;9.25;100.00;99052.50;5016262;28;20528;-83
2022/12/22 09:04:47;;;;;;;17.92;3.08;;;;;;;9.27;100.00;99060.31;4984036;28;20064;-83
2022/12/22 09:07:14;;;;;;;29.35;4.05;;;;;;;9.26;100.00;99059.50;4979407;28;20076;-83
2022/12/22 09:09:41;;;;;;;14.68;3.90;;;;;;;9.27;100.00;99055.84;5000237;28;20049;-83
2022/12/22 09:12:08;;;;;;;22.63;3.53;;;;;;;9.27;100.00;99063.81;4998376;28;20101;-82
2022/12/22 09:14:35;;;;;;;17.38;3.15;;;;;;;9.29;100.00;99067.16;4996003;28;20038;-83
2022/12/22 09:17:02;;;;;;;13.05;2.80;;;;;;;9.30;100.00;99062.69;4998663;28;20443;-83
2022/12/22 09:19:28;;;;;;;17.15;3.67;;;;;;;9.30;100.00;99058.22;5008124;28;20033;-83
2022/12/22 09:21:55;;;;;;;10.20;2.05;;;;;;;9.31;100.00;99067.84;4969474;28;20092;-84
2022/12/22 09:24:22;;;;;;;7.07;2.05;;;;;;;9.33;100.00;99067.69;4983162;28;20053;-83
2022/12/22 09:26:49;;;;;;;15.20;2.90;;;;;;;9.34;100.00;99064.06;4983418;28;20065;-83
2022/12/22 09:29:16;;;;;;;9.50;2.60;;;;;;;9.35;100.00;99074.50;4982727;28;20049;-84
2022/12/22 09:31:42;;;;;;;22.42;6.30;;;;;;;9.41;100.00;99062.47;4999903;28;20057;-84
2022/12/22 09:34:11;;;;;;;8.32;1.95;;;;;;;9.42;100.00;99060.69;4984346;28;20048;-81
2022/12/22 09:36:43;;;;;;;5.97;1.63;;;;;;;9.43;100.00;99065.81;4988748;28;20049;-82
2022/12/22 09:39:10;;;;;;;12.80;2.10;;;;;;;9.41;100.00;99067.78;5003720;28;20546;-81
2022/12/22 09:41:45;;;;;;;10.00;1.70;;;;;;;9.38;100.00;99057.47;5003503;28;20084;-82
2022/12/22 09:44:31;;;;;;;11.70;1.60;;;;;;;9.32;100.00;99061.56;5018271;28;20100;-82
2022/12/22 09:47:02;;;;;;;9.43;3.08;;;;;;;9.40;100.00;99062.63;4984107;28;20054;-82
2022/12/22 09:49:30;;;;;;;17.25;4.05;;;;;;;9.44;100.00;99070.16;5008505;28;20460;-82
2022/12/22 09:51:59;;;;;;;7.70;1.98;;;;;;;9.46;100.00;99054.09;5002309;28;20058;-82
2022/12/22 09:54:27;;;;;;;9.65;1.60;;;;;;;9.47;100.00;99056.59;5016942;28;20191;-81
2022/12/22 09:56:54;;;;;;;13.35;2.47;;;;;;;9.49;100.00;99049.34;5001110;28;20132;-81
2022/12/22 09:59:24;;;;;;;14.85;2.25;;;;;;;9.43;100.00;99073.75;4986457;28;20041;-81
2022/12/22 10:01:57;;;;;;;8.85;1.92;;;;;;;9.45;100.00;99065.69;5011915;28;20041;-82
2022/12/22 10:04:36;;;;;;;10.25;2.33;;;;;;;9.43;100.00;99071.13;4971617;28;20041;-81
2022/12/22 10:07:24;;;;;;;6.90;1.60;;;;;;;9.42;100.00;99082.72;5011181;28;20087;-83
2022/12/22 10:09:50;;;;;;;11.13;1.92;;;;;;;9.45;100.00;99082.41;4968806;28;20057;-83
2022/12/22 10:12:25;;;;;;;11.23;1.92;;;;;;;9.42;100.00;99069.47;5001041;28;20115;-84
2022/12/22 10:14:52;;;;;;;13.18;2.10;;;;;;;9.48;100.00;99099.84;5001850;28;20061;-84
2022/12/22 10:17:23;;;;;;;9.60;1.63;;;;;;;9.49;100.00;99091.75;4996493;28;20565;-84
2022/12/22 10:19:52;;;;;;;5.07;1.40;;;;;;;9.49;100.00;99098.84;5001831;28;20505;-83
2022/12/22 10:22:23;;;;;;;15.98;3.05;;;;;;;9.44;100.00;99091.34;4992856;28;20057;-82
2022/12/22 10:24:50;;;;;;;7.03;1.90;;;;;;;9.49;100.00;99107.66;5004642;28;20041;-82
2022/12/22 10:27:17;;;;;;;9.13;1.80;;;;;;;9.49;100.00;99101.50;5017479;28;20056;-82
2022/12/22 10:29:47;;;;;;;9.32;2.88;;;;;;;9.49;100.00;99102.34;5000719;28;20057;-83
2022/12/22 10:32:17;;;;;;;14.35;2.75;;;;;;;9.48;100.00;99107.78;5014404;28;20420;-83
2022/12/22 10:35:03;;;;;;;11.07;1.88;;;;;;;9.42;100.00;99111.03;5004580;28;20564;-83
2022/12/22 10:37:37;;;;;;;5.35;1.40;;;;;;;9.44;100.00;99095.78;4968803;28;20144;-82
2022/12/22 10:40:16;;;;;;;9.57;1.63;;;;;;;9.45;100.00;99116.84;4984800;28;20350;-84
2022/12/22 10:42:53;;;;;;;7.22;1.73;;;;;;;9.42;100.00;99101.25;5004205;28;20111;-83
2022/12/22 10:45:21;;;;;;;6.38;1.65;;;;;;;9.49;100.00;99102.34;4986825;28;20053;-83
2022/12/22 10:47:50;;;;;;;7.63;1.65;;;;;;;9.46;100.00;99096.50;5015198;28;20049;-82
2022/12/22 10:50:17;;;;;;;14.32;1.85;;;;;;;9.43;100.00;99105.56;4985371;28;20057;-83
2022/12/22 10:52:55;;;;;;;9.93;1.92;;;;;;;9.43;100.00;99104.75;5018788;28;20125;-82
2022/12/22 10:55:31;;;;;;;9.13;2.15;;;;;;;9.46;100.00;99091.19;4974027;28;20046;-83
2022/12/22 10:58:10;;;;;;;5.65;1.45;;;;;;;9.43;100.00;99102.91;5003326;28;20426;-81
2022/12/22 11:00:37;;;;;;;5.95;1.73;;;;;;;9.49;100.00;99097.06;4964100;28;20053;-82
2022/12/22 11:03:05;;;;;;;7.40;1.73;;;;;;;9.52;100.00;99080.84;5001404;28;20041;-81
2022/12/22 11:05:32;;;;;;;6.90;1.70;;;;;;;9.52;100.00;99087.97;5032211;28;20879;-83
2022/12/22 11:08:16;;;;;;;7.05;2.22;;;;;;;9.46;100.00;99093.84;4981738;28;20048;-81
2022/12/22 11:11:15;;;;;;;;;;;;;;;9.38;100.00;99091.91;5004162;28;20504;-82
2022/12/22 11:13:57;;;;;;;6.38;1.70;;;;;;;9.46;100.00;99084.06;4931527;28;19925;-82
2022/12/22 11:16:42;;;;;;;5.18;1.90;;;;;;;9.47;100.00;99109.59;4978711;28;20042;-83
2022/12/22 11:19:39;;;;;;;8.63;1.30;;;;;;;9.49;100.00;99099.69;4983369;28;20140;-83
2022/12/22 11:22:20;;;;;;;8.48;1.83;;;;;;;9.49;100.00;99099.69;4948140;28;20512;-82
2022/12/22 11:25:19;;;;;;;5.43;1.80;;;;;;;9.49;100.00;99097.06;4982415;28;20042;-82
2022/12/22 11:28:10;;;;;;;6.20;2.40;;;;;;;9.48;100.00;99105.97;4955771;28;20061;-82
2022/12/22 11:31:02;;;;;;;5.85;1.50;;;;;;;9.48;100.00;99111.25;4979622;28;20054;-82
2022/12/22 11:33:44;;;;;;;5.70;1.60;;;;;;;9.48;100.00;99111.25;4958076;28;20049;-82
2022/12/22 11:36:22;;;;;;;4.25;1.40;;;;;;;9.51;100.00;99116.25;4902324;28;20770;-82
2022/12/22 11:38:56;;;;;;;8.10;2.75;;;;;;;9.56;100.00;99123.78;4944600;28;20045;-82
2022/12/22 12:27:51;;;;;;;10.85;2.08;;;;;;;9.58;100.00;99196.03;4876128;29;20122;-85
2022/12/22 12:30:19;;;;;;;9.10;2.40;;;;;;;9.59;100.00;99208.28;4898533;29;20052;-86
2022/12/22 12:33:33;;;;;;;10.30;2.33;;;;;;;9.56;100.00;99205.94;4881493;29;20517;-85
2022/12/22 12:36:36;;;;;;;7.13;1.75;;;;;;;9.58;100.00;99201.34;4838995;29;20129;-84
2022/12/22 12:39:16;;;;;;;9.30;1.63;;;;;;;9.60;100.00;99209.97;4822544;29;20491;-85
2022/12/22 12:41:49;;;;;;;7.88;1.85;;;;;;;9.64;100.00;99219.34;4867984;29;20675;-84
2022/12/22 12:44:18;;;;;;;8.43;2.17;;;;;;;9.66;100.00;99217.34;4872360;29;20055;-84
2022/12/22 12:46:51;;;;;;;7.22;1.70;;;;;;;9.65;100.00;99213.03;4871718;29;20078;-84
2022/12/22 12:49:33;;;;;;;;;;;;;;;9.51;100.00;99232.03;4900048;29;20044;-84
2022/12/22 12:52:06;;;;;;;6.32;2.15;;;;;;;9.65;100.00;99228.94;4886020;29;19952;-84
2022/12/22 12:54:37;;;;;;;;;;;;;;;9.50;100.00;99241.00;4869735;29;20060;-88
2022/12/22 12:57:06;;;;;;;;;;;;;;;9.50;100.00;99243.63;4888583;29;19958;-87
2022/12/22 12:59:39;;;;;;;;;;;;;;;9.50;100.00;99247.13;4883495;29;19922;-87
2022/12/22 13:02:24;;;;;;;;;;;;;;;9.50;100.00;99244.47;4866182;29;25073;-85
2022/12/22 13:05:01;;;;;;;;;;;;;;;9.53;100.00;99251.28;4870338;29;19938;-86
2022/12/22 13:07:46;;;;;;;;;;;;;;;9.54;100.00;99250.31;4884042;29;19954;-85
2022/12/22 13:10:22;;;;;;;;;;;;;;;9.54;100.00;99252.94;4865618;29;19930;-85
2022/12/22 13:12:52;;;;;;;;;;;;;;;9.55;100.00;99259.94;4883920;29;19931;-85
2022/12/22 13:15:29;;;;;;;;;;;;;;;9.55;100.00;99250.16;4869899;29;19930;-86
2022/12/22 13:17:56;;;;;;;;;;;;;;;9.56;100.00;99258.94;4864898;29;19958;-87
2022/12/22 13:20:24;;;;;;;;;;;;;;;9.56;100.00;99262.44;4879769;29;20009;-87
2022/12/22 13:22:52;;;;;;;;;;;;;;;9.56;100.00;99265.09;4916270;28;20255;-86
2022/12/22 13:25:18;;;;;;;;;;;;;;;9.58;100.00;99280.84;4885989;29;19974;-87
2022/12/22 13:27:45;;;;;;;;;;;;;;;9.59;100.00;99284.34;4898930;29;19962;-87
2022/12/22 13:30:15;;;;;;;;;;;;;;;9.58;100.00;99286.16;4883483;29;19927;-87
2022/12/22 13:32:42;;;;;;;;;;;;;;;9.57;100.00;99303.88;4905554;29;19923;-87
2022/12/22 13:35:19;;;;;;;;;;;;;;;9.59;100.00;99306.38;4871612;29;20301;-87
2022/12/22 13:37:59;;;;;;;;;;;;;;;9.60;100.00;99305.41;4852365;29;19926;-85
2022/12/22 13:40:29;;;;;;;;;;;;;;;9.60;100.00;99299.28;4868681;29;19929;-86
2022/12/22 13:42:59;;;;;;;;;;;;;;;9.60;100.00;99291.34;4898783;29;19923;-85
2022/12/22 13:45:36;;;;;;;;;;;;;;;9.62;100.00;99289.38;4870736;29;19930;-86
2022/12/22 13:48:16;;;;;;;;;;;;;;;9.62;100.00;99292.03;4882288;29;19938;-85
2022/12/22 13:50:44;;;;;;;;;;;;;;;9.61;100.00;99299.13;4883040;29;19938;-85
2022/12/22 13:53:24;;;;;;;;;;;;;;;9.62;100.00;99294.69;4852331;29;21915;-87
2022/12/22 13:56:18;;;;;;;;;;;;;;;9.61;100.00;99304.41;4856013;29;20002;-87
2022/12/22 13:58:45;;;;;;;;;;;;;;;9.62;100.00;99292.84;4872090;29;20276;-87
2022/12/22 14:01:15;;;;;;;;;;;;;;;9.62;100.00;99306.13;4915193;29;19923;-85
2022/12/22 14:04:02;;;;;;;;;;;;;;;9.63;100.00;99312.25;4902608;29;20283;-87
2022/12/22 14:06:37;;;;;;;;;;;;;;;9.63;100.00;99321.03;4857029;29;19932;-86
2022/12/22 14:09:20;;;;;;;;;;;;;;;9.63;100.00;99313.06;4898783;28;19923;-87
2022/12/22 14:11:47;;;;;;;;;;;;;;;9.64;100.00;99314.75;4849623;29;19949;-86
2022/12/22 14:14:18;;;;;;;;;;;;;;;9.62;100.00;99311.41;4888440;29;19950;-86
2022/12/22 14:16:46;;;;;;;;;;;;;;;9.66;100.00;99306.66;4887370;29;19923;-85
2022/12/22 14:19:13;;;;;;;;;;;;;;;9.68;100.00;99307.34;4886755;29;20437;-86
2022/12/22 14:21:41;;;;;;;;;;;;;;;9.68;100.00;99308.19;4869404;29;19923;-86
2022/12/22 14:24:17;;;;;;;;;;;;;;;9.69;100.00;99317.81;4887919;29;20374;-85
2022/12/22 14:26:43;;;;;;;;;;;;;;;9.70;100.00;99322.13;4901454;29;19946;-87
2022/12/22 14:29:14;;;;;;;;;;;;;;;9.69;100.00;99333.72;4868838;29;20400;-86
2022/12/22 14:31:53;;;;;;;;;;;;;;;9.70;100.00;99335.38;4883993;29;19938;-87
2022/12/22 14:34:24;;;;;;;;;;;;;;;9.70;100.00;99339.88;4886170;29;19930;-87
2022/12/22 14:36:53;;;;;;;;;;;;;;;9.71;100.00;99344.16;4898738;29;19962;-86
2022/12/22 14:39:21;;;;;;;;;;;;;;;9.70;100.00;99339.88;4905247;29;19927;-86
2022/12/22 14:41:52;;;;;;;;;;;;;;;9.70;100.00;99351.28;4904563;29;19932;-86
2022/12/22 14:44:21;;;;;;;;;;;;;;;9.70;100.00;99350.47;4904974;29;19927;-86
2022/12/22 14:47:10;;;;;;;;;;;;;;;9.70;100.00;99345.16;4888648;29;19931;-87
2022/12/22 14:49:46;;;;;;;;;;;;;;;9.69;100.00;99349.63;4845921;29;19970;-86
2022/12/22 14:52:15;;;;;;;;;;;;;;;9.68;100.00;99355.91;4901570;29;19923;-86
2022/12/22 14:54:43;;;;;;;;;;;;;;;9.69;100.00;99365.53;4917667;29;19936;-84
2022/12/22 14:57:10;;;;;;;;;;;;;;;9.70;100.00;99358.41;4888877;29;19923;-85
2022/12/22 14:59:55;;;;;;;;;;;;;;;9.70;100.00;99361.91;4885473;29;20069;-84
2022/12/22 15:02:29;;;;;;;;;;;;;;;9.68;100.00;99361.19;4883920;29;20354;-84
2022/12/22 15:05:08;;;;;;;;;;;;;;;9.69;100.00;99365.53;4863135;29;19931;-85
2022/12/22 15:07:47;;;;;;;;;;;;;;;9.69;100.00;99370.84;4901090;29;19930;-83
2022/12/22 15:10:40;;;;;;;;;;;;;;;9.69;100.00;99368.19;4858429;29;20398;-84
2022/12/22 15:13:17;;;;;;;;;;;;;;;9.71;100.00;99366.22;4886873;29;19923;-84
2022/12/22 15:15:44;;;;;;;;;;;;;;;9.70;100.00;99375.16;4867673;29;20946;-84
2022/12/22 15:18:43;;;;;;;;;;;;;;;9.73;100.00;99379.34;4793752;29;20014;-85
2022/12/22 15:21:10;;;;;;;;;;;;;;;9.73;100.00;99372.22;4848422;29;19924;-86
2022/12/22 15:23:37;;;;;;;;;;;;;;;9.74;100.00;99378.34;4847998;29;19924;-86
2022/12/22 15:26:04;;;;;;;;;;;;;;;9.74;100.00;99378.34;4842592;29;19930;-87
2022/12/22 15:28:31;;;;;;;;;;;;;;;9.73;100.00;99374.03;4885395;29;19931;-85
2022/12/22 15:30:57;;;;;;;;;;;;;;;9.71;100.00;99382.13;4900932;29;19923;-85
2022/12/22 15:33:24;;;;;;;;;;;;;;;9.70;100.00;99376.97;4885987;29;19923;-85
2022/12/22 15:35:51;;;;;;;;;;;;;;;9.70;100.00;99375.16;4887119;29;19923;-85
2022/12/22 15:38:19;;;;;;;;;;;;;;;9.69;100.00;99388.53;4897020;29;19931;-84
2022/12/22 15:40:46;;;;;;;;;;;;;;;9.70;100.00;99383.13;4887568;29;19930;-85
2022/12/22 15:43:13;;;;;;;;;;;;;;;9.71;100.00;99381.28;4871323;29;19931;-85
2022/12/22 15:46:00;;;;;;;;;;;;;;;9.70;100.00;99384.94;4857992;29;20673;-85
2022/12/22 15:48:31;;;;;;;;;;;;;;;9.71;100.00;99376.81;4885232;29;20339;-86
2022/12/22 15:50:58;;;;;;;;;;;;;;;9.72;100.00;99372.38;4864488;29;19927;-85
2022/12/22 15:53:25;;;;;;;;;;;;;;;9.72;100.00;99391.78;4854818;29;19995;-84
2022/12/22 15:55:52;;;;;;;;;;;;;;;9.73;100.00;99377.53;4872598;29;19931;-85
2022/12/22 15:58:19;;;;;;;;;;;;;;;9.73;100.00;99388.13;4854648;29;19931;-84
2022/12/22 16:00:46;;;;;;;;;;;;;;;9.73;100.00;99380.16;4871167;29;19930;-84
2022/12/22 16:03:13;;;;;;;;;;;;;;;9.73;100.00;99385.47;4870322;29;20130;-86
2022/12/22 16:05:40;;;;;;;;;;;;;;;9.74;100.00;99386.31;4836230;29;19923;-85
2022/12/22 16:08:16;;;;;;;;;;;;;;;9.74;100.00;99387.16;4857094;29;19934;-85
2022/12/22 16:10:54;;;;;;;;;;;;;;;9.74;100.00;99383.66;4846432;29;19923;-85
2022/12/22 16:13:21;;;;;;;;;;;;;;;9.73;100.00;99379.34;4841021;29;19927;-86
2022/12/22 16:15:48;;;;;;;;;;;;;;;9.75;100.00;99388.00;4871369;29;19927;-84
2022/12/22 16:18:14;;;;;;;;;;;;;;;9.76;100.00;99381.69;4855686;29;19931;-85
2022/12/22 16:20:41;;;;;;;;;;;;;;;9.76;100.00;99377.22;4841891;29;19924;-86
2022/12/22 16:23:19;;;;;;;;;;;;;;;9.77;100.00;99378.94;4868996;29;19930;-86
2022/12/22 16:25:46;;;;;;;;;;;;;;;9.76;100.00;99379.88;4884735;29;19998;-86
2022/12/22 16:28:14;;;;;;;;;;;;;;;9.76;100.00;99377.22;4886278;29;19931;-85
2022/12/22 16:30:41;;;;;;;;;;;;;;;9.77;100.00;99376.28;4901076;29;19962;-85
2022/12/22 16:33:09;;;;;;;;;;;;;;;9.77;100.00;99372.78;4899048;29;19923;-86
2022/12/22 16:35:36;;;;;;;;;;;;;;;9.77;100.00;99378.94;4901396;29;19930;-87
2022/12/22 16:38:03;;;;;;;;;;;;;;;9.76;100.00;99371.94;4887220;29;19931;-85
2022/12/22 16:40:30;;;;;;;;;;;;;;;9.77;100.00;99375.44;4871777;29;20021;-84